Presinge Trader — DUIR — position and weather

sailwx.info

Track history (hours):
 
Tides and Currents Weather Stations Pressure Air Temp Water Temp Dewpoint Dewpoint Depression Visibility Wind Speed Wind Dir Waves Ship Positions

Presinge Trader

Last reported at 2018-May-30 18:59 UTC. Time now 2018-Jun-23 19:39 UTC.
Position N 01°19' E 103°19'.
Warning: this ship's position is 24 days out of date.

Length 229 m; draft 14.8 m.

Type: Cargo ship. MMSI: 548950000.

Date/timePositionNaut miles runAvg speedWind from/ knotsBaromVisibWave heightAir tempDewpointWater temp
2018-May-30 18:59N 01°19' E 103°19'711.1
2018-May-30 18:23N 01°15' E 103°24'510.5
2018-May-30 17:55N 01°13' E 103°29'410.4
2018-May-30 17:30N 01°12' E 103°33'5 9.4
2018-May-30 17:00N 01°12' E 103°38'5 9.5
2018-May-30 16:29N 01°09' E 103°42'4 9.2
2018-May-30 16:00N 01°10' E 103°47'611.3
2018-May-30 15:30N 01°12' E 103°52'510.0
2018-May-30 15:00N 01°15' E 103°56'2 4.3
2018-May-30 14:25N 01°17' E 103°58'0 0.3
2018-May-30 13:58N 01°17' E 103°58'0 0.0
2018-May-30 13:28N 01°17' E 103°58'0 0.0
2018-May-30 12:57N 01°17' E 103°58'0 0.0
2018-May-30 12:24N 01°17' E 103°58'0 0.0
2018-May-30 12:00N 01°17' E 103°58'0 0.0
2018-May-30 11:28N 01°17' E 103°58'0 0.0
2018-May-30 10:58N 01°17' E 103°58'0 0.0
2018-May-30 10:24N 01°17' E 103°58'0 0.1
2018-May-30 09:55N 01°17' E 103°58'0 0.0
2018-May-30 09:28N 01°17' E 103°58'0 0.0
2018-May-30 09:00N 01°17' E 103°58'0 0.0
2018-May-30 08:25N 01°17' E 103°58'0 0.0
2018-May-30 07:55N 01°17' E 103°58'0 0.0
2018-May-30 07:24N 01°17' E 103°58'0 0.0
2018-May-30 06:57N 01°17' E 103°58'0 0.1
2018-May-30 06:30N 01°17' E 103°58'0 0.0
2018-May-30 05:54N 01°17' E 103°58'0 0.0
2018-May-30 05:30N 01°17' E 103°58'0 0.1
2018-May-30 05:00N 01°17' E 103°58'0 0.0
2018-May-30 04:25N 01°17' E 103°58'0 0.0
2018-May-30 03:37N 01°17' E 103°58'0 0.0
2018-May-30 03:04N 01°17' E 103°58'0 0.1
2018-May-30 02:58N 01°17' E 103°58'0 0.1
2018-May-30 02:28N 01°17' E 103°58'0 0.2
2018-May-30 02:00N 01°17' E 103°58'1 1.9
2018-May-30 01:26N 01°16' E 103°58'2 3.9
2018-May-30 01:00N 01°16' E 103°60'3 5.7
2018-May-30 00:30N 01°16' E 104°03'3 6.4
2018-May-30 00:00N 01°17' E 104°06'3 5.3
2018-May-29 23:30N 01°17' E 104°09'3 6.5
2018-May-29 22:58N 01°17' E 104°12'3 5.9
2018-May-29 22:29N 01°18' E 104°15'4 7.5
2018-May-29 22:00N 01°19' E 104°18'5 8.7
2018-May-29 21:28N 01°21' E 104°22'4 9.1
2018-May-29 21:00N 01°24' E 104°25'6 9.5
2018-May-29 20:22N 01°27' E 104°30'6 9.2
2018-May-29 19:43N 01°32' E 104°34'  
2018-May-23 21:03N 22°24' E 119°45'210.5
2018-May-23 20:51N 22°26' E 119°45'410.5
2018-May-23 20:30N 22°30' E 119°45'610.5
2018-May-23 19:58N 22°35' E 119°46'910.7
2018-May-23 19:10N 22°44' E 119°46'310.6
2018-May-23 18:53N 22°47' E 119°46'  
Track history (hours):
 
Tides and Currents Weather Stations Pressure Air Temp Water Temp Dewpoint Dewpoint Depression Visibility Wind Speed Wind Dir Waves Ship Positions

Presinge Trader

Last reported at 2018-May-30 18:59 UTC. Time now 2018-Jun-23 19:39 UTC.
Position N 01°19' E 103°19'.
Warning: this ship's position is 24 days out of date.

Length 229 m; draft 14.8 m.

Type: Cargo ship. MMSI: 548950000.

Date/timePositionNaut miles runAvg speedWind from/ knotsBaromVisibWave heightAir tempDewpointWater temp
2018-May-30 18:59N 01°19' E 103°19'711.1
2018-May-30 18:23N 01°15' E 103°24'510.5
2018-May-30 17:55N 01°13' E 103°29'410.4
2018-May-30 17:30N 01°12' E 103°33'5 9.4
2018-May-30 17:00N 01°12' E 103°38'5 9.5
2018-May-30 16:29N 01°09' E 103°42'4 9.2
2018-May-30 16:00N 01°10' E 103°47'611.3
2018-May-30 15:30N 01°12' E 103°52'510.0
2018-May-30 15:00N 01°15' E 103°56'2 4.3
2018-May-30 14:25N 01°17' E 103°58'0 0.3
2018-May-30 13:58N 01°17' E 103°58'0 0.0
2018-May-30 13:28N 01°17' E 103°58'0 0.0
2018-May-30 12:57N 01°17' E 103°58'0 0.0
2018-May-30 12:24N 01°17' E 103°58'0 0.0
2018-May-30 12:00N 01°17' E 103°58'0 0.0
2018-May-30 11:28N 01°17' E 103°58'0 0.0
2018-May-30 10:58N 01°17' E 103°58'0 0.0
2018-May-30 10:24N 01°17' E 103°58'0 0.1
2018-May-30 09:55N 01°17' E 103°58'0 0.0
2018-May-30 09:28N 01°17' E 103°58'0 0.0
2018-May-30 09:00N 01°17' E 103°58'0 0.0
2018-May-30 08:25N 01°17' E 103°58'0 0.0
2018-May-30 07:55N 01°17' E 103°58'0 0.0
2018-May-30 07:24N 01°17' E 103°58'0 0.0
2018-May-30 06:57N 01°17' E 103°58'0 0.1
2018-May-30 06:30N 01°17' E 103°58'0 0.0
2018-May-30 05:54N 01°17' E 103°58'0 0.0
2018-May-30 05:30N 01°17' E 103°58'0 0.1
2018-May-30 05:00N 01°17' E 103°58'0 0.0
2018-May-30 04:25N 01°17' E 103°58'0 0.0
2018-May-30 03:37N 01°17' E 103°58'0 0.0
2018-May-30 03:04N 01°17' E 103°58'0 0.1
2018-May-30 02:58N 01°17' E 103°58'0 0.1
2018-May-30 02:28N 01°17' E 103°58'0 0.2
2018-May-30 02:00N 01°17' E 103°58'1 1.9
2018-May-30 01:26N 01°16' E 103°58'2 3.9
2018-May-30 01:00N 01°16' E 103°60'3 5.7
2018-May-30 00:30N 01°16' E 104°03'3 6.4
2018-May-30 00:00N 01°17' E 104°06'3 5.3
2018-May-29 23:30N 01°17' E 104°09'3 6.5
2018-May-29 22:58N 01°17' E 104°12'3 5.9
2018-May-29 22:29N 01°18' E 104°15'4 7.5
2018-May-29 22:00N 01°19' E 104°18'5 8.7
2018-May-29 21:28N 01°21' E 104°22'4 9.1
2018-May-29 21:00N 01°24' E 104°25'6 9.5
2018-May-29 20:22N 01°27' E 104°30'6 9.2
2018-May-29 19:43N 01°32' E 104°34'  
2018-May-23 21:03N 22°24' E 119°45'210.5
2018-May-23 20:51N 22°26' E 119°45'410.5
2018-May-23 20:30N 22°30' E 119°45'610.5
2018-May-23 19:58N 22°35' E 119°46'910.7
2018-May-23 19:10N 22°44' E 119°46'310.6
2018-May-23 18:53N 22°47' E 119°46'  

Dump ship's entire track history